sensor_id;sensor_type;location;lat;lon;timestamp;P1;durP1;ratioP1;P2;durP2;ratioP2
63653;SDS011;49809;47.418;19.080;2022-08-19T00:01:18;6.30;;;3.92;;
63653;SDS011;49809;47.418;19.080;2022-08-19T00:05:03;5.28;;;4.00;;
63653;SDS011;49809;47.418;19.080;2022-08-19T00:08:26;5.90;;;4.45;;
63653;SDS011;49809;47.418;19.080;2022-08-19T00:12:11;6.18;;;4.53;;
63653;SDS011;49809;47.418;19.080;2022-08-19T00:15:55;4.80;;;4.07;;
63653;SDS011;49809;47.418;19.080;2022-08-19T00:19:23;6.10;;;4.10;;
63653;SDS011;49809;47.418;19.080;2022-08-19T00:22:26;6.18;;;4.28;;
63653;SDS011;49809;47.418;19.080;2022-08-19T00:25:35;5.03;;;4.20;;
63653;SDS011;49809;47.418;19.080;2022-08-19T00:28:43;4.80;;;4.30;;
63653;SDS011;49809;47.418;19.080;2022-08-19T00:35:15;7.35;;;4.53;;
63653;SDS011;49809;47.418;19.080;2022-08-19T00:38:42;6.03;;;4.32;;
63653;SDS011;49809;47.418;19.080;2022-08-19T00:42:07;5.60;;;4.32;;
63653;SDS011;49809;47.418;19.080;2022-08-19T00:45:16;8.68;;;4.65;;
63653;SDS011;49809;47.418;19.080;2022-08-19T00:48:42;7.50;;;4.57;;
63653;SDS011;49809;47.418;19.080;2022-08-19T00:51:50;6.03;;;4.28;;
63653;SDS011;49809;47.418;19.080;2022-08-19T00:55:35;7.40;;;4.43;;
63653;SDS011;49809;47.418;19.080;2022-08-19T00:59:02;7.05;;;4.28;;
63653;SDS011;49809;47.418;19.080;2022-08-19T01:02:32;4.82;;;3.90;;
63653;SDS011;49809;47.418;19.080;2022-08-19T01:05:58;6.25;;;4.05;;
63653;SDS011;49809;47.418;19.080;2022-08-19T01:09:41;4.85;;;3.90;;
63653;SDS011;49809;47.418;19.080;2022-08-19T01:13:05;5.95;;;4.07;;
63653;SDS011;49809;47.418;19.080;2022-08-19T01:16:28;6.37;;;4.30;;
63653;SDS011;49809;47.418;19.080;2022-08-19T01:19:40;5.93;;;4.30;;
63653;SDS011;49809;47.418;19.080;2022-08-19T01:23:05;6.68;;;3.85;;
63653;SDS011;49809;47.418;19.080;2022-08-19T01:26:30;7.70;;;3.92;;
63653;SDS011;49809;47.418;19.080;2022-08-19T01:30:15;7.43;;;4.25;;
63653;SDS011;49809;47.418;19.080;2022-08-19T01:34:08;5.68;;;4.37;;
63653;SDS011;49809;47.418;19.080;2022-08-19T01:37:18;8.30;;;4.22;;
63653;SDS011;49809;47.418;19.080;2022-08-19T01:40:35;5.62;;;4.45;;
63653;SDS011;49809;47.418;19.080;2022-08-19T01:44:00;6.15;;;4.28;;
63653;SDS011;49809;47.418;19.080;2022-08-19T01:47:50;6.30;;;4.45;;
63653;SDS011;49809;47.418;19.080;2022-08-19T01:51:24;5.90;;;4.15;;
63653;SDS011;49809;47.418;19.080;2022-08-19T01:54:56;5.45;;;4.28;;
63653;SDS011;49809;47.418;19.080;2022-08-19T01:58:24;6.12;;;3.92;;
63653;SDS011;49809;47.418;19.080;2022-08-19T02:01:38;6.00;;;4.30;;
63653;SDS011;49809;47.418;19.080;2022-08-19T02:05:04;6.57;;;4.62;;
63653;SDS011;49809;47.418;19.080;2022-08-19T02:08:15;8.57;;;4.12;;
63653;SDS011;49809;47.418;19.080;2022-08-19T02:11:22;7.18;;;4.55;;
63653;SDS011;49809;47.418;19.080;2022-08-19T02:14:31;6.47;;;4.60;;
63653;SDS011;49809;47.418;19.080;2022-08-19T02:17:58;5.65;;;4.55;;
63653;SDS011;49809;47.418;19.080;2022-08-19T02:21:23;5.03;;;3.72;;
63653;SDS011;49809;47.418;19.080;2022-08-19T02:24:28;7.50;;;4.53;;
63653;SDS011;49809;47.418;19.080;2022-08-19T02:27:52;6.57;;;4.18;;
63653;SDS011;49809;47.418;19.080;2022-08-19T02:30:57;5.90;;;3.80;;
63653;SDS011;49809;47.418;19.080;2022-08-19T02:34:00;5.55;;;4.20;;
63653;SDS011;49809;47.418;19.080;2022-08-19T02:37:07;5.78;;;4.22;;
63653;SDS011;49809;47.418;19.080;2022-08-19T02:40:36;5.78;;;4.12;;
63653;SDS011;49809;47.418;19.080;2022-08-19T02:44:04;4.78;;;3.97;;
63653;SDS011;49809;47.418;19.080;2022-08-19T02:47:47;7.07;;;4.10;;
63653;SDS011;49809;47.418;19.080;2022-08-19T02:51:15;4.93;;;4.20;;
63653;SDS011;49809;47.418;19.080;2022-08-19T02:54:42;6.05;;;4.72;;
63653;SDS011;49809;47.418;19.080;2022-08-19T02:58:27;7.60;;;4.40;;
63653;SDS011;49809;47.418;19.080;2022-08-19T03:01:51;6.43;;;4.60;;
63653;SDS011;49809;47.418;19.080;2022-08-19T03:05:22;6.15;;;4.25;;
63653;SDS011;49809;47.418;19.080;2022-08-19T03:09:06;5.95;;;4.45;;
63653;SDS011;49809;47.418;19.080;2022-08-19T03:12:50;7.18;;;4.43;;
63653;SDS011;49809;47.418;19.080;2022-08-19T03:16:13;5.80;;;4.40;;
63653;SDS011;49809;47.418;19.080;2022-08-19T03:19:41;8.88;;;5.05;;
63653;SDS011;49809;47.418;19.080;2022-08-19T03:23:08;7.50;;;4.50;;
63653;SDS011;49809;47.418;19.080;2022-08-19T03:26:16;8.07;;;4.60;;
63653;SDS011;49809;47.418;19.080;2022-08-19T03:29:27;7.10;;;4.25;;
63653;SDS011;49809;47.418;19.080;2022-08-19T03:32:35;8.98;;;4.70;;
63653;SDS011;49809;47.418;19.080;2022-08-19T03:36:20;6.62;;;4.47;;
63653;SDS011;49809;47.418;19.080;2022-08-19T03:39:26;8.95;;;4.47;;
63653;SDS011;49809;47.418;19.080;2022-08-19T03:42:29;6.60;;;4.60;;
63653;SDS011;49809;47.418;19.080;2022-08-19T03:46:15;5.57;;;4.28;;
63653;SDS011;49809;47.418;19.080;2022-08-19T03:49:44;6.87;;;4.37;;
63653;SDS011;49809;47.418;19.080;2022-08-19T03:52:55;8.40;;;4.70;;
63653;SDS011;49809;47.418;19.080;2022-08-19T03:55:58;6.18;;;4.57;;
63653;SDS011;49809;47.418;19.080;2022-08-19T03:59:06;8.13;;;3.95;;
63653;SDS011;49809;47.418;19.080;2022-08-19T04:02:12;5.93;;;4.60;;
63653;SDS011;49809;47.418;19.080;2022-08-19T04:05:17;6.22;;;4.43;;
63653;SDS011;49809;47.418;19.080;2022-08-19T04:08:53;6.18;;;4.50;;
63653;SDS011;49809;47.418;19.080;2022-08-19T04:12:02;6.03;;;4.07;;
63653;SDS011;49809;47.418;19.080;2022-08-19T04:15:08;13.20;;;5.43;;
63653;SDS011;49809;47.418;19.080;2022-08-19T04:21:58;6.43;;;4.68;;
63653;SDS011;49809;47.418;19.080;2022-08-19T04:25:04;7.20;;;4.62;;
63653;SDS011;49809;47.418;19.080;2022-08-19T04:28:29;8.50;;;4.70;;
63653;SDS011;49809;47.418;19.080;2022-08-19T04:31:36;10.45;;;4.53;;
63653;SDS011;49809;47.418;19.080;2022-08-19T04:34:41;7.37;;;4.80;;
63653;SDS011;49809;47.418;19.080;2022-08-19T04:38:30;6.20;;;4.25;;
63653;SDS011;49809;47.418;19.080;2022-08-19T04:41:57;7.50;;;4.60;;
63653;SDS011;49809;47.418;19.080;2022-08-19T04:45:54;7.50;;;5.07;;
63653;SDS011;49809;47.418;19.080;2022-08-19T04:49:21;6.30;;;4.60;;
63653;SDS011;49809;47.418;19.080;2022-08-19T04:53:06;9.70;;;4.40;;
63653;SDS011;49809;47.418;19.080;2022-08-19T04:56:52;7.28;;;4.50;;
63653;SDS011;49809;47.418;19.080;2022-08-19T05:00:42;6.93;;;4.55;;
63653;SDS011;49809;47.418;19.080;2022-08-19T05:04:10;7.95;;;4.20;;
63653;SDS011;49809;47.418;19.080;2022-08-19T05:07:54;7.30;;;4.62;;
63653;SDS011;49809;47.418;19.080;2022-08-19T05:11:39;6.65;;;4.43;;
63653;SDS011;49809;47.418;19.080;2022-08-19T05:14:49;6.90;;;4.45;;
63653;SDS011;49809;47.418;19.080;2022-08-19T05:18:16;6.65;;;5.00;;
63653;SDS011;49809;47.418;19.080;2022-08-19T05:21:59;5.18;;;4.15;;
63653;SDS011;49809;47.418;19.080;2022-08-19T05:25:41;6.12;;;4.28;;
63653;SDS011;49809;47.418;19.080;2022-08-19T05:29:30;6.78;;;4.35;;
63653;SDS011;49809;47.418;19.080;2022-08-19T05:33:02;6.12;;;4.30;;
63653;SDS011;49809;47.418;19.080;2022-08-19T05:36:27;5.15;;;4.00;;
63653;SDS011;49809;47.418;19.080;2022-08-19T05:39:37;6.12;;;4.30;;
63653;SDS011;49809;47.418;19.080;2022-08-19T05:42:41;6.73;;;3.90;;
63653;SDS011;49809;47.418;19.080;2022-08-19T05:46:08;6.15;;;4.00;;
63653;SDS011;49809;47.418;19.080;2022-08-19T05:49:40;6.95;;;4.07;;
63653;SDS011;49809;47.418;19.080;2022-08-19T05:56:52;7.62;;;3.72;;
63653;SDS011;49809;47.418;19.080;2022-08-19T06:00:19;5.28;;;4.12;;
63653;SDS011;49809;47.418;19.080;2022-08-19T06:03:27;5.93;;;3.97;;
63653;SDS011;49809;47.418;19.080;2022-08-19T06:06:51;4.70;;;3.47;;
63653;SDS011;49809;47.418;19.080;2022-08-19T06:10:14;4.40;;;3.37;;
63653;SDS011;49809;47.418;19.080;2022-08-19T06:13:48;6.10;;;3.65;;
63653;SDS011;49809;47.418;19.080;2022-08-19T06:20:50;6.10;;;3.17;;
63653;SDS011;49809;47.418;19.080;2022-08-19T06:24:22;6.37;;;3.42;;
63653;SDS011;49809;47.418;19.080;2022-08-19T06:27:28;4.43;;;3.22;;
63653;SDS011;49809;47.418;19.080;2022-08-19T06:30:33;5.55;;;3.70;;
63653;SDS011;49809;47.418;19.080;2022-08-19T06:33:56;5.00;;;3.33;;
63653;SDS011;49809;47.418;19.080;2022-08-19T06:37:03;4.93;;;3.70;;
63653;SDS011;49809;47.418;19.080;2022-08-19T06:40:31;5.05;;;3.40;;
63653;SDS011;49809;47.418;19.080;2022-08-19T06:43:58;5.78;;;3.00;;
63653;SDS011;49809;47.418;19.080;2022-08-19T06:47:21;7.45;;;3.67;;
63653;SDS011;49809;47.418;19.080;2022-08-19T06:50:55;4.72;;;3.53;;
63653;SDS011;49809;47.418;19.080;2022-08-19T06:58:41;4.50;;;3.30;;
63653;SDS011;49809;47.418;19.080;2022-08-19T07:02:24;7.10;;;3.40;;
63653;SDS011;49809;47.418;19.080;2022-08-19T07:06:10;5.95;;;3.62;;
63653;SDS011;49809;47.418;19.080;2022-08-19T07:09:41;5.57;;;3.72;;
63653;SDS011;49809;47.418;19.080;2022-08-19T07:13:05;3.50;;;3.08;;
63653;SDS011;49809;47.418;19.080;2022-08-19T07:16:11;7.37;;;3.55;;
63653;SDS011;49809;47.418;19.080;2022-08-19T07:19:24;5.40;;;3.30;;
63653;SDS011;49809;47.418;19.080;2022-08-19T07:22:29;4.15;;;2.97;;
63653;SDS011;49809;47.418;19.080;2022-08-19T07:25:57;5.62;;;3.40;;
63653;SDS011;49809;47.418;19.080;2022-08-19T07:29:02;5.43;;;3.70;;
63653;SDS011;49809;47.418;19.080;2022-08-19T07:32:08;5.32;;;3.25;;
63653;SDS011;49809;47.418;19.080;2022-08-19T07:35:43;3.67;;;2.87;;
63653;SDS011;49809;47.418;19.080;2022-08-19T07:39:09;7.22;;;3.50;;
63653;SDS011;49809;47.418;19.080;2022-08-19T07:42:19;6.65;;;3.58;;
63653;SDS011;49809;47.418;19.080;2022-08-19T07:45:43;5.03;;;3.20;;
63653;SDS011;49809;47.418;19.080;2022-08-19T07:49:07;5.45;;;3.17;;
63653;SDS011;49809;47.418;19.080;2022-08-19T07:52:21;3.87;;;3.15;;
63653;SDS011;49809;47.418;19.080;2022-08-19T07:55:26;4.28;;;3.60;;
63653;SDS011;49809;47.418;19.080;2022-08-19T07:58:50;5.75;;;3.05;;
63653;SDS011;49809;47.418;19.080;2022-08-19T08:02:04;4.32;;;3.30;;
63653;SDS011;49809;47.418;19.080;2022-08-19T08:05:10;4.15;;;3.40;;
63653;SDS011;49809;47.418;19.080;2022-08-19T08:08:45;5.45;;;3.60;;
63653;SDS011;49809;47.418;19.080;2022-08-19T08:12:33;3.37;;;2.78;;
63653;SDS011;49809;47.418;19.080;2022-08-19T08:16:03;4.18;;;3.20;;
63653;SDS011;49809;47.418;19.080;2022-08-19T08:19:16;3.83;;;3.20;;
63653;SDS011;49809;47.418;19.080;2022-08-19T08:22:29;4.05;;;3.22;;
63653;SDS011;49809;47.418;19.080;2022-08-19T08:26:13;4.82;;;3.50;;
63653;SDS011;49809;47.418;19.080;2022-08-19T08:29:24;5.47;;;3.28;;
63653;SDS011;49809;47.418;19.080;2022-08-19T08:32:41;3.92;;;3.30;;
63653;SDS011;49809;47.418;19.080;2022-08-19T08:36:07;3.30;;;2.75;;
63653;SDS011;49809;47.418;19.080;2022-08-19T08:39:36;4.53;;;3.37;;
63653;SDS011;49809;47.418;19.080;2022-08-19T08:43:03;4.62;;;2.97;;
63653;SDS011;49809;47.418;19.080;2022-08-19T08:50:05;4.78;;;3.12;;
63653;SDS011;49809;47.418;19.080;2022-08-19T08:53:19;3.33;;;3.03;;
63653;SDS011;49809;47.418;19.080;2022-08-19T08:56:38;3.12;;;2.80;;
63653;SDS011;49809;47.418;19.080;2022-08-19T09:00:25;4.87;;;2.70;;
63653;SDS011;49809;47.418;19.080;2022-08-19T09:03:37;3.58;;;2.67;;
63653;SDS011;49809;47.418;19.080;2022-08-19T09:15:52;3.60;;;3.00;;
63653;SDS011;49809;47.418;19.080;2022-08-19T09:19:32;3.30;;;2.95;;
63653;SDS011;49809;47.418;19.080;2022-08-19T09:23:27;3.28;;;2.95;;
63653;SDS011;49809;47.418;19.080;2022-08-19T09:27:03;4.78;;;3.50;;
63653;SDS011;49809;47.418;19.080;2022-08-19T09:30:51;3.05;;;2.72;;
63653;SDS011;49809;47.418;19.080;2022-08-19T09:34:18;3.53;;;3.10;;
63653;SDS011;49809;47.418;19.080;2022-08-19T09:37:55;3.42;;;3.03;;
63653;SDS011;49809;47.418;19.080;2022-08-19T09:41:31;3.78;;;3.45;;
63653;SDS011;49809;47.418;19.080;2022-08-19T09:45:04;3.83;;;3.37;;
63653;SDS011;49809;47.418;19.080;2022-08-19T09:48:57;3.47;;;3.17;;
63653;SDS011;49809;47.418;19.080;2022-08-19T09:52:31;3.35;;;3.05;;
63653;SDS011;49809;47.418;19.080;2022-08-19T09:56:01;3.05;;;2.75;;
63653;SDS011;49809;47.418;19.080;2022-08-19T09:59:39;3.22;;;2.95;;
63653;SDS011;49809;47.418;19.080;2022-08-19T10:03:26;3.80;;;3.05;;
63653;SDS011;49809;47.418;19.080;2022-08-19T10:07:23;4.47;;;3.05;;
63653;SDS011;49809;47.418;19.080;2022-08-19T10:11:05;3.62;;;3.22;;
63653;SDS011;49809;47.418;19.080;2022-08-19T10:18:20;4.75;;;3.10;;
63653;SDS011;49809;47.418;19.080;2022-08-19T10:22:07;5.65;;;2.80;;
63653;SDS011;49809;47.418;19.080;2022-08-19T10:25:53;3.67;;;2.85;;
63653;SDS011;49809;47.418;19.080;2022-08-19T10:29:55;3.58;;;2.75;;
63653;SDS011;49809;47.418;19.080;2022-08-19T10:33:34;4.53;;;2.80;;
63653;SDS011;49809;47.418;19.080;2022-08-19T10:37:39;3.42;;;3.10;;
63653;SDS011;49809;47.418;19.080;2022-08-19T10:41:12;5.20;;;3.33;;
63653;SDS011;49809;47.418;19.080;2022-08-19T10:45:04;3.22;;;2.92;;
63653;SDS011;49809;47.418;19.080;2022-08-19T10:48:43;3.75;;;3.40;;
63653;SDS011;49809;47.418;19.080;2022-08-19T10:52:34;4.47;;;3.00;;
63653;SDS011;49809;47.418;19.080;2022-08-19T10:56:19;3.10;;;2.80;;
63653;SDS011;49809;47.418;19.080;2022-08-19T11:00:36;3.37;;;3.03;;
63653;SDS011;49809;47.418;19.080;2022-08-19T11:04:05;3.75;;;3.03;;
63653;SDS011;49809;47.418;19.080;2022-08-19T11:07:52;3.20;;;2.78;;
63653;SDS011;49809;47.418;19.080;2022-08-19T11:11:34;3.40;;;2.75;;
63653;SDS011;49809;47.418;19.080;2022-08-19T11:15:26;3.33;;;3.03;;
63653;SDS011;49809;47.418;19.080;2022-08-19T11:19:10;4.05;;;3.65;;
63653;SDS011;49809;47.418;19.080;2022-08-19T11:22:53;2.80;;;2.60;;
63653;SDS011;49809;47.418;19.080;2022-08-19T11:26:28;3.20;;;2.90;;
63653;SDS011;49809;47.418;19.080;2022-08-19T11:30:12;3.12;;;2.83;;
63653;SDS011;49809;47.418;19.080;2022-08-19T11:34:01;3.35;;;3.05;;
63653;SDS011;49809;47.418;19.080;2022-08-19T11:37:37;3.58;;;3.28;;
63653;SDS011;49809;47.418;19.080;2022-08-19T11:41:29;3.97;;;3.33;;
63653;SDS011;49809;47.418;19.080;2022-08-19T11:45:26;8.73;;;5.93;;
63653;SDS011;49809;47.418;19.080;2022-08-19T11:48:56;8.88;;;5.87;;
63653;SDS011;49809;47.418;19.080;2022-08-19T11:52:26;7.25;;;5.07;;
63653;SDS011;49809;47.418;19.080;2022-08-19T11:56:18;6.18;;;5.57;;
63653;SDS011;49809;47.418;19.080;2022-08-19T12:00:04;6.95;;;6.15;;
63653;SDS011;49809;47.418;19.080;2022-08-19T12:03:39;5.10;;;4.60;;
63653;SDS011;49809;47.418;19.080;2022-08-19T12:07:15;5.00;;;4.30;;
63653;SDS011;49809;47.418;19.080;2022-08-19T12:11:15;5.45;;;4.68;;
63653;SDS011;49809;47.418;19.080;2022-08-19T12:14:42;5.30;;;4.80;;
63653;SDS011;49809;47.418;19.080;2022-08-19T12:18:53;6.75;;;5.40;;
63653;SDS011;49809;47.418;19.080;2022-08-19T12:22:31;5.97;;;4.93;;
63653;SDS011;49809;47.418;19.080;2022-08-19T12:26:11;6.85;;;6.15;;
63653;SDS011;49809;47.418;19.080;2022-08-19T12:29:55;7.87;;;6.87;;
63653;SDS011;49809;47.418;19.080;2022-08-19T12:33:41;8.00;;;7.10;;
63653;SDS011;49809;47.418;19.080;2022-08-19T12:37:31;12.45;;;7.40;;
63653;SDS011;49809;47.418;19.080;2022-08-19T12:41:25;8.80;;;8.00;;
63653;SDS011;49809;47.418;19.080;2022-08-19T12:44:59;8.18;;;7.40;;
63653;SDS011;49809;47.418;19.080;2022-08-19T12:48:50;7.65;;;6.80;;
63653;SDS011;49809;47.418;19.080;2022-08-19T12:52:25;7.37;;;6.68;;
63653;SDS011;49809;47.418;19.080;2022-08-19T12:56:29;7.17;;;6.10;;
63653;SDS011;49809;47.418;19.080;2022-08-19T13:00:13;7.93;;;5.87;;
63653;SDS011;49809;47.418;19.080;2022-08-19T13:04:07;7.07;;;6.32;;
63653;SDS011;49809;47.418;19.080;2022-08-19T13:07:42;8.60;;;5.23;;
63653;SDS011;49809;47.418;19.080;2022-08-19T13:11:31;7.97;;;5.50;;
63653;SDS011;49809;47.418;19.080;2022-08-19T13:15:12;4.70;;;3.55;;
63653;SDS011;49809;47.418;19.080;2022-08-19T13:18:55;7.95;;;2.87;;
63653;SDS011;49809;47.418;19.080;2022-08-19T13:22:48;4.20;;;2.35;;
63653;SDS011;49809;47.418;19.080;2022-08-19T13:26:28;3.78;;;2.40;;
63653;SDS011;49809;47.418;19.080;2022-08-19T13:30:27;3.78;;;2.40;;
63653;SDS011;49809;47.418;19.080;2022-08-19T13:34:27;7.43;;;2.80;;
63653;SDS011;49809;47.418;19.080;2022-08-19T13:38:38;4.70;;;2.50;;
63653;SDS011;49809;47.418;19.080;2022-08-19T13:42:07;4.50;;;2.33;;
63653;SDS011;49809;47.418;19.080;2022-08-19T13:46:07;5.75;;;2.70;;
63653;SDS011;49809;47.418;19.080;2022-08-19T13:49:42;5.87;;;3.53;;
63653;SDS011;49809;47.418;19.080;2022-08-19T13:53:47;4.80;;;2.83;;
63653;SDS011;49809;47.418;19.080;2022-08-19T13:57:32;3.72;;;2.92;;
63653;SDS011;49809;47.418;19.080;2022-08-19T14:01:35;11.85;;;2.75;;
63653;SDS011;49809;47.418;19.080;2022-08-19T14:05:42;10.30;;;2.55;;
63653;SDS011;49809;47.418;19.080;2022-08-19T14:09:22;5.45;;;2.25;;
63653;SDS011;49809;47.418;19.080;2022-08-19T14:13:32;4.70;;;2.15;;
63653;SDS011;49809;47.418;19.080;2022-08-19T14:17:15;6.35;;;2.50;;
63653;SDS011;49809;47.418;19.080;2022-08-19T14:21:24;5.75;;;2.20;;
63653;SDS011;49809;47.418;19.080;2022-08-19T14:25:17;6.05;;;2.60;;
63653;SDS011;49809;47.418;19.080;2022-08-19T14:29:29;7.97;;;2.50;;
63653;SDS011;49809;47.418;19.080;2022-08-19T14:33:18;5.90;;;2.22;;
63653;SDS011;49809;47.418;19.080;2022-08-19T14:37:29;5.03;;;2.00;;
63653;SDS011;49809;47.418;19.080;2022-08-19T14:41:10;7.37;;;2.40;;
63653;SDS011;49809;47.418;19.080;2022-08-19T14:45:16;7.68;;;2.33;;
63653;SDS011;49809;47.418;19.080;2022-08-19T14:49:19;3.10;;;1.40;;
63653;SDS011;49809;47.418;19.080;2022-08-19T14:53:06;3.03;;;1.48;;
63653;SDS011;49809;47.418;19.080;2022-08-19T14:57:14;9.82;;;1.73;;
63653;SDS011;49809;47.418;19.080;2022-08-19T15:00:51;3.03;;;1.27;;
63653;SDS011;49809;47.418;19.080;2022-08-19T15:04:50;4.87;;;1.23;;
63653;SDS011;49809;47.418;19.080;2022-08-19T15:08:30;3.22;;;1.35;;
63653;SDS011;49809;47.418;19.080;2022-08-19T15:12:30;6.07;;;1.80;;
63653;SDS011;49809;47.418;19.080;2022-08-19T15:16:03;4.82;;;1.20;;
63653;SDS011;49809;47.418;19.080;2022-08-19T15:20:11;6.25;;;1.33;;
63653;SDS011;49809;47.418;19.080;2022-08-19T15:23:51;3.78;;;1.73;;
63653;SDS011;49809;47.418;19.080;2022-08-19T15:27:31;7.05;;;1.67;;
63653;SDS011;49809;47.418;19.080;2022-08-19T15:31:05;3.28;;;1.33;;
63653;SDS011;49809;47.418;19.080;2022-08-19T15:35:04;11.57;;;1.67;;
63653;SDS011;49809;47.418;19.080;2022-08-19T15:38:34;6.12;;;1.75;;
63653;SDS011;49809;47.418;19.080;2022-08-19T15:42:39;3.58;;;1.42;;
63653;SDS011;49809;47.418;19.080;2022-08-19T15:46:21;3.37;;;1.35;;
63653;SDS011;49809;47.418;19.080;2022-08-19T15:54:12;4.20;;;1.12;;
63653;SDS011;49809;47.418;19.080;2022-08-19T15:57:52;5.05;;;1.20;;
63653;SDS011;49809;47.418;19.080;2022-08-19T16:01:51;4.22;;;1.48;;
63653;SDS011;49809;47.418;19.080;2022-08-19T16:06:11;4.78;;;1.10;;
63653;SDS011;49809;47.418;19.080;2022-08-19T16:10:19;6.78;;;1.60;;
63653;SDS011;49809;47.418;19.080;2022-08-19T16:14:07;3.12;;;1.40;;
63653;SDS011;49809;47.418;19.080;2022-08-19T16:17:45;4.78;;;1.40;;
63653;SDS011;49809;47.418;19.080;2022-08-19T16:21:36;5.25;;;1.52;;
63653;SDS011;49809;47.418;19.080;2022-08-19T16:25:07;5.35;;;1.48;;
63653;SDS011;49809;47.418;19.080;2022-08-19T16:28:57;6.28;;;1.92;;
63653;SDS011;49809;47.418;19.080;2022-08-19T16:32:51;3.37;;;1.35;;
63653;SDS011;49809;47.418;19.080;2022-08-19T16:36:23;2.65;;;0.98;;
63653;SDS011;49809;47.418;19.080;2022-08-19T16:40:11;13.62;;;2.72;;
63653;SDS011;49809;47.418;19.080;2022-08-19T16:43:51;5.45;;;1.25;;
63653;SDS011;49809;47.418;19.080;2022-08-19T16:47:56;4.70;;;1.80;;
63653;SDS011;49809;47.418;19.080;2022-08-19T16:51:44;5.55;;;1.70;;
63653;SDS011;49809;47.418;19.080;2022-08-19T16:55:31;5.62;;;1.92;;
63653;SDS011;49809;47.418;19.080;2022-08-19T16:59:05;4.68;;;2.17;;
63653;SDS011;49809;47.418;19.080;2022-08-19T17:03:06;7.97;;;2.10;;
63653;SDS011;49809;47.418;19.080;2022-08-19T17:06:32;4.20;;;1.90;;
63653;SDS011;49809;47.418;19.080;2022-08-19T17:09:40;5.43;;;1.95;;
63653;SDS011;49809;47.418;19.080;2022-08-19T17:12:46;9.50;;;2.20;;
63653;SDS011;49809;47.418;19.080;2022-08-19T17:15:51;4.87;;;2.17;;
63653;SDS011;49809;47.418;19.080;2022-08-19T17:18:55;3.25;;;2.33;;
63653;SDS011;49809;47.418;19.080;2022-08-19T17:22:04;4.57;;;2.20;;
63653;SDS011;49809;47.418;19.080;2022-08-19T17:25:17;4.97;;;2.08;;
63653;SDS011;49809;47.418;19.080;2022-08-19T17:28:25;6.35;;;2.33;;
63653;SDS011;49809;47.418;19.080;2022-08-19T17:31:30;3.97;;;2.10;;
63653;SDS011;49809;47.418;19.080;2022-08-19T17:34:38;5.50;;;1.70;;
63653;SDS011;49809;47.418;19.080;2022-08-19T17:37:41;3.72;;;1.90;;
63653;SDS011;49809;47.418;19.080;2022-08-19T17:40:53;6.65;;;2.12;;
63653;SDS011;49809;47.418;19.080;2022-08-19T17:44:05;4.90;;;1.95;;
63653;SDS011;49809;47.418;19.080;2022-08-19T17:47:10;5.57;;;1.80;;
63653;SDS011;49809;47.418;19.080;2022-08-19T17:50:14;4.90;;;1.98;;
63653;SDS011;49809;47.418;19.080;2022-08-19T17:53:20;5.85;;;1.80;;
63653;SDS011;49809;47.418;19.080;2022-08-19T17:56:24;6.85;;;2.12;;
63653;SDS011;49809;47.418;19.080;2022-08-19T17:59:30;7.50;;;1.60;;
63653;SDS011;49809;47.418;19.080;2022-08-19T18:02:33;4.37;;;1.95;;
63653;SDS011;49809;47.418;19.080;2022-08-19T18:05:57;3.80;;;1.77;;
63653;SDS011;49809;47.418;19.080;2022-08-19T18:09:41;3.67;;;1.70;;
63653;SDS011;49809;47.418;19.080;2022-08-19T18:13:05;5.60;;;1.62;;
63653;SDS011;49809;47.418;19.080;2022-08-19T18:16:23;4.53;;;2.10;;
63653;SDS011;49809;47.418;19.080;2022-08-19T18:19:29;4.45;;;1.87;;
63653;SDS011;49809;47.418;19.080;2022-08-19T18:22:47;3.53;;;1.90;;
63653;SDS011;49809;47.418;19.080;2022-08-19T18:25:53;8.52;;;3.05;;
63653;SDS011;49809;47.418;19.080;2022-08-19T18:28:57;5.03;;;1.87;;
63653;SDS011;49809;47.418;19.080;2022-08-19T18:32:06;4.07;;;1.70;;
63653;SDS011;49809;47.418;19.080;2022-08-19T18:35:22;6.87;;;1.73;;
63653;SDS011;49809;47.418;19.080;2022-08-19T18:38:35;6.50;;;1.70;;
63653;SDS011;49809;47.418;19.080;2022-08-19T18:42:41;6.05;;;1.92;;
63653;SDS011;49809;47.418;19.080;2022-08-19T18:46:16;6.72;;;2.70;;
63653;SDS011;49809;47.418;19.080;2022-08-19T18:50:03;7.32;;;3.12;;
63653;SDS011;49809;47.418;19.080;2022-08-19T18:57:13;6.75;;;2.75;;
63653;SDS011;49809;47.418;19.080;2022-08-19T19:00:36;8.55;;;2.92;;
63653;SDS011;49809;47.418;19.080;2022-08-19T19:04:18;4.85;;;2.65;;
63653;SDS011;49809;47.418;19.080;2022-08-19T19:07:52;2.62;;;2.10;;
63653;SDS011;49809;47.418;19.080;2022-08-19T19:11:39;4.10;;;2.35;;
63653;SDS011;49809;47.418;19.080;2022-08-19T19:15:35;4.55;;;2.22;;
63653;SDS011;49809;47.418;19.080;2022-08-19T19:19:37;8.30;;;2.78;;
63653;SDS011;49809;47.418;19.080;2022-08-19T19:23:20;5.97;;;2.53;;
63653;SDS011;49809;47.418;19.080;2022-08-19T19:31:29;6.65;;;2.60;;
63653;SDS011;49809;47.418;19.080;2022-08-19T19:34:57;6.90;;;2.62;;
63653;SDS011;49809;47.418;19.080;2022-08-19T19:38:41;6.53;;;2.58;;
63653;SDS011;49809;47.418;19.080;2022-08-19T19:42:47;8.18;;;2.60;;
63653;SDS011;49809;47.418;19.080;2022-08-19T19:49:16;5.55;;;2.53;;
63653;SDS011;49809;47.418;19.080;2022-08-19T19:52:41;5.18;;;2.67;;
63653;SDS011;49809;47.418;19.080;2022-08-19T19:56:10;5.12;;;2.47;;
63653;SDS011;49809;47.418;19.080;2022-08-19T19:59:42;6.65;;;3.08;;
63653;SDS011;49809;47.418;19.080;2022-08-19T20:03:30;5.78;;;3.10;;
63653;SDS011;49809;47.418;19.080;2022-08-19T20:07:14;10.15;;;3.55;;
63653;SDS011;49809;47.418;19.080;2022-08-19T20:10:21;7.30;;;3.05;;
63653;SDS011;49809;47.418;19.080;2022-08-19T20:13:46;5.05;;;3.25;;
63653;SDS011;49809;47.418;19.080;2022-08-19T20:17:29;8.23;;;4.22;;
63653;SDS011;49809;47.418;19.080;2022-08-19T20:21:14;8.27;;;4.12;;
63653;SDS011;49809;47.418;19.080;2022-08-19T20:25:22;8.02;;;4.35;;
63653;SDS011;49809;47.418;19.080;2022-08-19T20:29:09;10.55;;;4.95;;
63653;SDS011;49809;47.418;19.080;2022-08-19T20:32:53;12.98;;;4.72;;
63653;SDS011;49809;47.418;19.080;2022-08-19T20:36:20;10.43;;;5.03;;
63653;SDS011;49809;47.418;19.080;2022-08-19T20:39:24;9.77;;;4.43;;
63653;SDS011;49809;47.418;19.080;2022-08-19T20:42:33;9.70;;;4.50;;
63653;SDS011;49809;47.418;19.080;2022-08-19T20:48:45;8.48;;;5.35;;
63653;SDS011;49809;47.418;19.080;2022-08-19T20:54:55;9.35;;;6.30;;
63653;SDS011;49809;47.418;19.080;2022-08-19T20:57:58;10.68;;;7.07;;
63653;SDS011;49809;47.418;19.080;2022-08-19T21:01:02;9.60;;;7.32;;
63653;SDS011;49809;47.418;19.080;2022-08-19T21:04:09;15.65;;;8.63;;
63653;SDS011;49809;47.418;19.080;2022-08-19T21:07:12;12.98;;;8.27;;
63653;SDS011;49809;47.418;19.080;2022-08-19T21:10:16;10.45;;;8.13;;
63653;SDS011;49809;47.418;19.080;2022-08-19T21:13:20;12.30;;;7.37;;
63653;SDS011;49809;47.418;19.080;2022-08-19T21:16:24;13.07;;;7.70;;
63653;SDS011;49809;47.418;19.080;2022-08-19T21:19:29;11.50;;;6.78;;
63653;SDS011;49809;47.418;19.080;2022-08-19T21:22:32;10.32;;;6.90;;
63653;SDS011;49809;47.418;19.080;2022-08-19T21:25:35;9.68;;;7.25;;
63653;SDS011;49809;47.418;19.080;2022-08-19T21:28:38;9.30;;;7.37;;
63653;SDS011;49809;47.418;19.080;2022-08-19T21:31:41;15.55;;;7.30;;
63653;SDS011;49809;47.418;19.080;2022-08-19T21:34:45;13.23;;;6.97;;
63653;SDS011;49809;47.418;19.080;2022-08-19T21:37:50;14.00;;;5.87;;
63653;SDS011;49809;47.418;19.080;2022-08-19T21:40:53;8.98;;;5.70;;
63653;SDS011;49809;47.418;19.080;2022-08-19T21:43:59;6.90;;;5.12;;
63653;SDS011;49809;47.418;19.080;2022-08-19T21:47:02;11.60;;;5.43;;